Tiempo atmosférico en la estación meteorológica de Bailo, Huesca (722 m.)



Fecha
DESCASC
Temp. máxima en grados centígrados (hora)
DESCASC
Temp. mínima en grados centígrados (hora)
DESCASC
Temp. media en grados centígrados
DESCASC
Racha de viento máxima en m/sg (hora)
DESCASC
Velocidad máxima media en intervalos de 10 minutos(hora)
DESCASC
Precipitaciones diarias en mm
DESCASC
Precipitaciones de 00:00 a 06:00 en mm
DESCASC
Precipitaciones de 06:00 a 12:00 en mm
DESCASC
Precipitaciones de 12:00 a 18:00 en mm
DESCASC
Precipitaciones de 18:00 a 24:00 en mm
DESCASC
22-01-2020 9.5 (14:40) -0.3 (00:00) 4.6 5.56 (22:30) 3.61 (22:00) 10.6 1.2 0 0.8 8.6
21-01-2020 2.5 (16:40) -1.5 (00:20) 0.5 4.44 (04:50) 2.78 (04:50) 0.8 0 0.2 0.4 0.2
20-01-2020 4.3 (15:00) -1.7 (08:30) 1.3 5.83 (00:10) 3.89 (00:10) 0 0 0 0 0
19-01-2020 9.9 (14:20) 0.5 (00:00) 5.2 16.11 (15:30) 9.17 (15:30) 2.6 2.6 0 0 0
18-01-2020 9.4 (13:50) 0.2 (00:00) 4.8 10 (15:50) 6.94 (15:30) 8.2 0 0 0.6 7.6
17-01-2020 9.3 (02:00) 3.1 (00:00) 6.2 12.5 (12:10) 8.06 (12:00) 1.8 1 0.2 0.6 0
16-01-2020 13.3 (15:00) 3.4 (00:00) 8.4 9.72 (17:00) 6.94 (17:50) 0 0 0 0 0
15-01-2020 11.8 (15:30) 3.6 (00:00) 7.7 11.67 (07:40) 9.17 (07:30) 0 0 0 0 0
14-01-2020 11.6 (15:40) -2.9 (-00:0) 4.4 9.17 (18:30) 7.22 (18:30) 0 0 0 0 0
13-01-2020 8 (16:00) -2.7 (-00:0) 2.6 5.56 (18:10) 3.33 (18:10) 0 0 0 0 0
12-01-2020 9.8 (16:10) -3.3 (-00:0) 3.3 2.5 (18:20) 1.67 (04:20) 0 0 0 0 0
11-01-2020 9.4 (15:00) -2 (-00:0) 3.7 4.17 (00:20) 3.33 (00:30) 0 0 0 0 0
10-01-2020 9.1 (14:20) 3.1 (00:00) 6.1 15 (14:30) 10.83 (14:00) 0.6 0.4 0.2 0 0
09-01-2020 12.2 (15:10) 2.5 (00:00) 7.3 9.17 (13:30) 6.94 (13:50) 0 0 0 0 0
08-01-2020 14 (15:30) 1.8 (00:00) 7.9 8.33 (22:10) 6.11 (22:30) 0 0 0 0 0
07-01-2020 10.6 (16:10) -1.6 (-00:0) 4.5 2.5 (11:40) 1.39 (11:40) 0 0 0 0 0
06-01-2020 10.4 (15:50) -0.7 (-00:0) 4.8 2.78 (20:00) 1.94 (19:40) 0 0 0 0 0
05-01-2020 12.2 (15:40) -1.1 (-00:0) 5.5 2.5 (15:20) 1.39 (15:20) 0 0 0 0 0
04-01-2020 12.9 (15:20) 1.4 (00:00) 7.1 7.22 (00:50) 4.44 (00:50) 0 0 0 0 0
03-01-2020 8.5 (20:40) -3.7 (-00:0) 2.4 11.39 (19:30) 7.5 (19:40) 0 0 0 0 0
02-01-2020 10.2 (15:10) -1.9 (-00:0) 4.1 2.78 (15:00) 1.94 (15:50) 0 0 0 0 0
01-01-2020 8.1 (16:10) -5.8 (-00:0) 1.2 2.22 (00:10) 1.39 (17:00) 0 0 0 0 0
31-12-2019 1.3 (15:10) -2.2 (-00:0) -0.5 2.78 (13:00) 1.94 (00:30) 0 0 0 0 0
30-12-2019 -- (--) -- (--) -- -- (--) -- (--) -- 0 0 0 --
29-12-2019 9.6 (15:20) -0.1 (00:00) 4.8 2.22 (14:30) 1.67 (18:30) 0 0 0 0 0
28-12-2019 12.6 (15:40) -0.3 (00:00) 6.2 2.5 (12:00) 1.67 (19:30) 0 0 0 0 0
27-12-2019 10.3 (16:30) -1.7 (-00:0) 4.3 2.22 (11:40) 1.39 (19:00) 0 0 0 0 0
26-12-2019 12.1 (11:10) 2.6 (00:00) 7.4 11.39 (13:20) 8.33 (14:40) 0 0 0 0 0
25-12-2019 14.3 (15:50) 2.6 (00:00) 8.5 2.22 (12:10) 1.67 (19:30) 0 0 0 0 0

Gráficas

Temp. máximas Temp. mínimas Temp. medias Precipitaciones Rachas de viento máximas Velocidades máximas media en intervalos de 10 minutos

Datos horarios

Fecha y hora oficial Temperatura (ºC) Velocidad del viento (km/h) Dirección del viento Racha (km/h) Dirección de racha Precipitación (mm) Presión (hPa) Tendencia (hPa) Humedad (%)
2020-01-23 23:00:00 3.6 14 Sur 30 Sur 0 -- -- 88
2020-01-23 22:00:00 3.3 20 Sur 27 Sur 0 -- -- 90
2020-01-23 21:00:00 3.4 16 Sur 23 Sur 0 -- -- 90
2020-01-23 20:00:00 3.7 8 Sudeste 18 Sur 0 -- -- 91
2020-01-23 19:00:00 3.9 10 Sur 19 Sudeste 0 -- -- 92
2020-01-23 18:00:00 4.1 10 Sur 32 Sur 0 -- -- 91
2020-01-23 17:00:00 4.4 10 Sudeste 18 Sudeste 0 -- -- 90
2020-01-23 16:00:00 3.9 12 Sur 19 Sur 0.6 -- -- 92
2020-01-23 15:00:00 4 12 Sur 21 Sur 0.6 -- -- 96
2020-01-23 14:00:00 4.2 14 Sur 20 Sur 0.4 -- -- 98
2020-01-23 13:00:00 4.3 4 Este 5 Este 0.4 -- -- 98
2020-01-23 12:00:00 3.6 0 Calma 6 Nordeste 0.8 -- -- 98
2020-01-23 11:00:00 3.3 3 Norte 6 Noroeste 0.4 -- -- 98
2020-01-23 10:00:00 2.8 4 Noroeste 5 Noroeste 0.8 -- -- 98
2020-01-23 09:00:00 2.5 3 Nordeste 9 Este 0 -- -- 98
2020-01-23 08:00:00 2.6 2 Nordeste 6 Oeste 1.8 -- -- 98
2020-01-23 07:00:00 2.5 3 Nordeste 5 Norte 5.8 -- -- 97
2020-01-23 06:00:00 2.6 3 Oeste 6 Sudoeste 1.8 -- -- 96
2020-01-23 05:00:00 2.8 5 Este 31 Sur 2 -- -- 95
2020-01-23 04:00:00 3 17 Sudoeste 32 Sudeste 1.2 -- -- 92
2020-01-23 03:00:00 2.9 15 Sudeste 31 Sur 0 -- -- 89
2020-01-23 02:00:00 2.5 15 Sur 27 Sur 0 -- -- 91
2020-01-23 01:00:00 2.5 14 Sur 22 Sur 0.4 -- -- 92
2020-01-23 00:00:00 2.9 5 Sur 14 Sur 0.8 -- -- 94
2020-01-22 23:00:00 3.3 11 Este 20 Sudeste 1.8 -- -- 94
2020-01-22 22:00:00 4.4 13 Sur 18 Sur 2.2 -- -- 93
2020-01-22 21:00:00 4.7 3 Sudeste 10 Sudoeste 1.4 -- -- 92
2020-01-22 20:00:00 5.1 8 Sudoeste 15 Sudoeste 0.8 -- -- 90
2020-01-22 19:00:00 5.6 10 Sudoeste 16 Sur 1.6 -- -- 87
2020-01-22 18:00:00 6.1 12 Sudeste 17 Sudeste 0.8 -- -- 87
2020-01-22 17:00:00 7.5 10 Sudeste 19 Sudeste 0 -- -- 79
2020-01-22 16:00:00 8 3 Oeste 10 Norte 0 -- -- 76
2020-01-22 15:00:00 8.9 4 Norte 11 Noroeste 0 -- -- 75
2020-01-22 14:00:00 8.2 3 Nordeste 9 Noroeste 0 -- -- 77
2020-01-22 13:00:00 6.6 3 Norte 8 Noroeste 0 -- -- 82
2020-01-22 12:00:00 5.1 2 Norte 8 Este 0 -- -- 92
2020-01-22 11:00:00 2.4 0 Calma 8 Este 0 -- -- 97
2020-01-22 10:00:00 0.6 4 Sudoeste 6 Oeste 0 -- -- 97
2020-01-22 09:00:00 0.4 2 Sur 5 Este 0 -- -- 97
2020-01-22 08:00:00 -0.1 2 Sudoeste 8 Nordeste 0 -- -- 97
2020-01-22 07:00:00 0.2 6 Sudoeste 7 Sudoeste 0 -- -- 97
2020-01-22 06:00:00 0 3 Sudeste 6 Noroeste 0 -- -- 96
2020-01-22 05:00:00 -0.1 4 Norte 10 Nordeste 0 -- -- 95
2020-01-22 04:00:00 0.4 4 Sudoeste 12 Noroeste 0.2 -- -- 95
2020-01-22 03:00:00 0.6 2 Sudoeste 6 Sur 1 -- -- 94
2020-01-22 02:00:00 0.3 3 Sudoeste 12 Noroeste 0 -- -- 93
2020-01-22 01:00:00 0.4 8 Noroeste 16 Sudeste 0 -- -- 91
2020-01-22 00:00:00 -0.3 4 Noroeste 7 Noroeste 0 -- -- 93
2020-01-21 23:00:00 0 2 Sudeste 5 Sur 0.2 -- -- 93
2020-01-21 22:00:00 0.3 2 Noroeste 5 Norte 0 -- -- 91
2020-01-21 21:00:00 0.8 3 Noroeste 6 Oeste 0 -- -- 90
2020-01-21 20:00:00 1.3 4 Nordeste 5 Este 0 -- -- 88
2020-01-21 19:00:00 2.2 3 Norte 5 Norte 0 -- -- 86
2020-01-21 18:00:00 2.5 3 Sudeste 6 Sur 0 -- -- 82
2020-01-21 17:00:00 2.4 3 Sudeste 5 Este 0 -- -- 84
2020-01-21 16:00:00 2.2 2 Norte 5 Noroeste 0 -- -- 86
2020-01-21 15:00:00 1.7 3 Oeste 7 Este 0.2 -- -- 91
2020-01-21 14:00:00 1.3 0 Calma 5 Sudoeste 0 -- -- 88
2020-01-21 13:00:00 1 4 Noroeste 8 Noroeste 0.2 -- -- 86
2020-01-21 12:00:00 1.5 3 Nordeste 12 Oeste 0 -- -- 82
2020-01-21 11:00:00 0.9 3 Este 9 Noroeste 0 -- -- 83
2020-01-21 10:00:00 0.3 4 Sudeste 10 Sudeste 0 -- -- 83
2020-01-21 09:00:00 -0.8 3 Sudoeste 9 Sudeste 0 -- -- 88
2020-01-21 08:00:00 -0.7 4 Sur 12 Noroeste 0 -- -- 86
2020-01-21 07:00:00 -0.2 4 Norte 7 Norte 0.2 -- -- 82
2020-01-21 06:00:00 -0.3 3 Oeste 9 Este 0 -- -- 81
2020-01-21 05:00:00 0.6 8 Sudoeste 16 Sur 0 -- -- 71
2020-01-21 04:00:00 -1 4 Sudeste 7 Este 0 -- -- 82
2020-01-21 03:00:00 -0.9 4 Norte 10 Sudeste 0 -- -- 83
2020-01-21 02:00:00 -1.3 8 Sudeste 10 Sudeste 0 -- -- 86
2020-01-21 01:00:00 -0.7 2 Sur 5 Este 0 -- -- 76
2020-01-21 00:00:00 -1 4 Norte 9 Noroeste 0 -- -- 78
2020-01-20 23:00:00 -1.2 2 Noroeste 7 Sudoeste 0 -- -- 77
2020-01-20 22:00:00 -0.4 2 Sudoeste 7 Sudoeste 0 -- -- 72
2020-01-20 21:00:00 0 3 Oeste 5 Oeste 0 -- -- 70
2020-01-20 20:00:00 0.2 4 Sudoeste 9 Sudoeste 0 -- -- 69
2020-01-20 19:00:00 1.7 4 Norte 11 Nordeste 0 -- -- 62
2020-01-20 18:00:00 3 3 Norte 13 Norte 0 -- -- 54
2020-01-20 17:00:00 3.7 6 Norte 15 Norte 0 -- -- 53
2020-01-20 16:00:00 4.3 5 Norte 9 Norte 0 -- -- 48
2020-01-20 15:00:00 4.3 5 Norte 10 Nordeste 0 -- -- 45
2020-01-20 14:00:00 3.2 4 Norte 9 Norte 0 -- -- 47
2020-01-20 13:00:00 2.6 4 Norte 9 Norte 0 -- -- 48
2020-01-20 12:00:00 1.2 2 Nordeste 5 Este 0 -- -- 51
2020-01-20 11:00:00 0.4 0 Calma 5 Oeste 0 -- -- 58
2020-01-20 10:00:00 -0.1 4 Noroeste 8 Oeste 0 -- -- 60
2020-01-20 09:00:00 -1.4 5 Noroeste 9 Norte 0 -- -- 56
2020-01-20 08:00:00 -1.4 2 Sur 5 Sudoeste 0 -- -- 48
2020-01-20 07:00:00 -0.9 3 Sur 6 Sudeste 0 -- -- 48
2020-01-20 06:00:00 -0.7 4 Sudoeste 7 Sudeste 0 -- -- 49
2020-01-20 05:00:00 -0.4 5 Sudeste 10 Sur 0 -- -- 51
2020-01-20 04:00:00 -0.2 5 Noroeste 21 Noroeste 0 -- -- 51
2020-01-20 03:00:00 0 7 Noroeste 17 Noroeste 0 -- -- 50
2020-01-20 02:00:00 0.2 2 Noroeste 9 Noroeste 0 -- -- 49
2020-01-20 01:00:00 0.4 3 Noroeste 21 Noroeste 0 -- -- 52
2020-01-20 00:00:00 0.7 11 Noroeste 25 Noroeste 0 -- -- 52
2020-01-19 23:00:00 0.8 17 Noroeste 24 Noroeste 0 -- -- 53
2020-01-19 22:00:00 1.1 16 Noroeste 24 Noroeste 0 -- -- 50
2020-01-19 21:00:00 1.5 13 Noroeste 21 Noroeste 0 -- -- 48
2020-01-19 20:00:00 2.1 16 Noroeste 25 Noroeste 0 -- -- 41
2020-01-19 19:00:00 2.2 17 Noroeste 27 Noroeste 0 -- -- 43
2020-01-19 18:00:00 3.6 15 Noroeste 55 Nordeste 0 -- -- 41
2020-01-19 17:00:00 6.8 27 Nordeste 54 Norte 0 -- -- 28
2020-01-19 16:00:00 8.6 24 Nordeste 58 Nordeste 0 -- -- 23
2020-01-19 15:00:00 9.1 24 Nordeste 39 Nordeste 0 -- -- 23
2020-01-19 14:00:00 9.7 29 Nordeste 47 Nordeste 0 -- -- 25
2020-01-19 13:00:00 9.3 28 Norte 42 Norte 0 -- -- 36
2020-01-19 12:00:00 6 9 Norte 18 Norte 0 -- -- 65
2020-01-19 11:00:00 4.7 3 Nordeste 7 Noroeste 0 -- -- 93
2020-01-19 10:00:00 2.7 5 Sudeste 8 Noroeste 0 -- -- 97
2020-01-19 09:00:00 1.9 2 Norte 6 Noroeste 0 -- -- 97
2020-01-19 08:00:00 2.3 0 Calma 5 Noroeste 0 -- -- 96
2020-01-19 07:00:00 2.4 4 Noroeste 5 Noroeste 0 -- -- 95
2020-01-19 06:00:00 3.1 3 Sudeste 6 Sudeste 0.2 -- -- 95
2020-01-19 05:00:00 3 4 Sudoeste 4 Sudoeste 0.2 -- -- 96
2020-01-19 04:00:00 3 0 Calma 5 Nordeste 0.2 -- -- 96
2020-01-19 03:00:00 3.1 0 Calma 9 Sudeste 0.4 -- -- 96
2020-01-19 02:00:00 3.1 5 Sudeste 8 Sudeste 0.4 -- -- 96
2020-01-19 01:00:00 3.3 7 Noroeste 17 Noroeste 1.2 -- -- 95
2020-01-19 00:00:00 3.9 4 Noroeste 17 Noroeste 2.4 -- -- 95
2020-01-18 23:00:00 4.6 14 Noroeste 19 Noroeste 1.6 -- -- 93
2020-01-18 22:00:00 5 6 Sur 21 Sur 2 -- -- 92
2020-01-18 21:00:00 5 14 Sur 24 Sur 1 -- -- 90
2020-01-18 20:00:00 5.3 17 Sur 27 Sur 0 -- -- 89
2020-01-18 19:00:00 5.5 16 Sur 26 Sur 0.6 -- -- 90
2020-01-18 18:00:00 6.1 10 Sur 18 Sudeste 0.6 -- -- 85
2020-01-18 17:00:00 7.3 12 Sudeste 36 Sur 0 -- -- 70
2020-01-18 16:00:00 8.2 22 Sur 36 Sur 0 -- -- 63
2020-01-18 15:00:00 9.1 22 Sur 32 Sur 0 -- -- 58
2020-01-18 14:00:00 9.4 18 Sur 27 Sur 0 -- -- 54
2020-01-18 13:00:00 8.7 16 Sudeste 33 Sudeste 0 -- -- 55
2020-01-18 12:00:00 6.7 17 Sur 31 Sudeste 0 -- -- 59
2020-01-18 11:00:00 4.2 22 Sur 33 Sur 0 -- -- 69
2020-01-18 10:00:00 3.3 14 Sur 24 Sur 0 -- -- 72
2020-01-18 09:00:00 1.8 5 Sudoeste 14 Este 0 -- -- 82
2020-01-18 08:00:00 2.7 9 Sur 20 Sur 0 -- -- 76
2020-01-18 07:00:00 1.2 6 Oeste 12 Oeste 0 -- -- 86
2020-01-18 06:00:00 0.6 4 Noroeste 17 Sudeste 0 -- -- 87
2020-01-18 05:00:00 1 5 Este 9 Sudeste 0 -- -- 84
2020-01-18 04:00:00 1.4 0 Calma 9 Sudoeste 0 -- -- 81
2020-01-18 03:00:00 1.7 6 Sudoeste 7 Sudoeste 0 -- -- 79
2020-01-18 02:00:00 2.4 3 Sur 13 Noroeste 0 -- -- 75
2020-01-18 01:00:00 3.1 8 Noroeste 18 Oeste 0 -- -- 73
2020-01-18 00:00:00 3.1 11 Oeste 28 Noroeste 0 -- -- 73
2020-01-17 23:00:00 3.7 19 Noroeste 27 Noroeste 0 -- -- 74
2020-01-17 22:00:00 4 15 Noroeste 30 Norte 0 -- -- 73
2020-01-17 21:00:00 3.3 13 Noroeste 24 Noroeste 0 -- -- 77
2020-01-17 20:00:00 4.5 16 Noroeste 31 Norte 0 -- -- 75
2020-01-17 19:00:00 5.4 22 Norte 37 Norte 0 -- -- 71
2020-01-17 18:00:00 5.7 18 Noroeste 32 Norte 0 -- -- 69
2020-01-17 17:00:00 6.6 16 Norte 35 Norte 0 -- -- 73
2020-01-17 16:00:00 8 15 Norte 26 Norte 0 -- -- 70
2020-01-17 15:00:00 7.5 16 Norte 26 Norte 0 -- -- 77
2020-01-17 14:00:00 6.2 11 Norte 43 Noroeste 0 -- -- 87
2020-01-17 13:00:00 7.2 20 Noroeste 45 Noroeste 0.6 -- -- 86
2020-01-17 12:00:00 7.8 29 Oeste 40 Oeste 0.2 -- -- 83
2020-01-17 11:00:00 7.8 4 Nordeste 17 Este 0 -- -- 84
2020-01-17 10:00:00 7 5 Noroeste 22 Sur 0 -- -- 85
2020-01-17 09:00:00 6.6 12 Sudeste 20 Sudeste 0 -- -- 84
2020-01-17 08:00:00 6.7 14 Sur 22 Sur 0 -- -- 84
2020-01-17 07:00:00 6.5 11 Sudoeste 20 Sudeste 0 -- -- 87
2020-01-17 06:00:00 7.2 13 Sur 19 Sur 0 -- -- 83
2020-01-17 05:00:00 7.9 10 Sur 18 Sur 0 -- -- 79
2020-01-17 04:00:00 7.3 10 Sur 20 Sur 0.2 -- -- 85
2020-01-17 03:00:00 8.1 16 Sur 22 Sur 0.8 -- -- 80
2020-01-17 02:00:00 9.3 15 Sur 23 Sur 0 -- -- 72
2020-01-17 01:00:00 9 18 Sur 23 Sur 0 -- -- 73
2020-01-17 00:00:00 8.5 18 Sur 25 Sur 0 -- -- 76
2020-01-16 23:00:00 8.1 21 Sur 31 Sudeste 0 -- -- 79
2020-01-16 22:00:00 7.9 17 Sur 27 Sur 0 -- -- 81
2020-01-16 21:00:00 8.2 21 Sudoeste 32 Sur 0 -- -- 80
2020-01-16 20:00:00 8.8 20 Sudoeste 28 Sur 0 -- -- 78
2020-01-16 19:00:00 9.7 21 Sur 28 Sur 0 -- -- 73
2020-01-16 18:00:00 10.3 24 Sur 32 Sur 0 -- -- 71
2020-01-16 17:00:00 11.7 24 Sur 35 Sur 0 -- -- 66
2020-01-16 16:00:00 11.8 18 Sur 30 Sur 0 -- -- 66
2020-01-16 15:00:00 13.3 13 Sur 27 Sur 0 -- -- 62
2020-01-16 14:00:00 12.1 15 Sur 30 Sur 0 -- -- 66
2020-01-16 13:00:00 11.7 19 Sur 30 Sur 0 -- -- 65
2020-01-16 12:00:00 10.3 16 Sur 32 Sur 0 -- -- 67
2020-01-16 11:00:00 7.7 18 Sur 31 Sur 0 -- -- 70
2020-01-16 10:00:00 5.6 19 Sur 33 Sudeste 0 -- -- 77
2020-01-16 09:00:00 4.3 15 Sudeste 24 Sudeste 0 -- -- 82
2020-01-16 08:00:00 3.8 15 Sudeste 32 Sur 0 -- -- 82
2020-01-16 07:00:00 4 19 Sur 28 Sur 0 -- -- 83
2020-01-16 06:00:00 5.2 12 Sur 22 Sur 0 -- -- 76
2020-01-16 05:00:00 5.4 8 Sudeste 21 Sur 0 -- -- 78
2020-01-16 04:00:00 5.1 14 Sur 24 Sur 0 -- -- 80
2020-01-16 03:00:00 3.6 3 Sudoeste 12 Sur 0 -- -- 84
2020-01-16 02:00:00 4.1 4 Este 13 Sur 0 -- -- 84
2020-01-16 01:00:00 5.2 6 Sudeste 9 Sur 0 -- -- 82
2020-01-16 00:00:00 4.7 3 Norte 11 Sudoeste 0 -- -- 83
2020-01-15 23:00:00 5.6 6 Sudoeste 9 Sudoeste 0 -- -- 80
2020-01-15 22:00:00 6.6 5 Oeste 8 Sudoeste 0 -- -- 75
2020-01-15 21:00:00 8.1 2 Sudoeste 6 Oeste 0 -- -- 69
2020-01-15 20:00:00 8.2 3 Nordeste 8 Sudoeste 0 -- -- 69
2020-01-15 19:00:00 9 6 Sudoeste 15 Sudoeste 0 -- -- 65
2020-01-15 18:00:00 9 11 Sudoeste 14 Sudoeste 0 -- -- 66
2020-01-15 17:00:00 10.4 10 Sur 16 Sudoeste 0 -- -- 60
2020-01-15 16:00:00 11.2 9 Sudoeste 17 Sur 0 -- -- 57
2020-01-15 15:00:00 10.3 13 Sur 20 Sur 0 -- -- 58
2020-01-15 14:00:00 10.1 13 Sur 24 Sur 0 -- -- 59
2020-01-15 13:00:00 9.3 15 Sur 26 Sur 0 -- -- 63
2020-01-15 12:00:00 6.6 10 Sur 40 Sudoeste 0 -- -- 68
2020-01-15 11:00:00 7 17 Sudoeste 28 Sudoeste 0 -- -- 62
2020-01-15 10:00:00 7.7 5 Sudoeste 25 Sudeste 0 -- -- 65
2020-01-15 09:00:00 5.2 6 Este 36 Sur 0 -- -- 72
2020-01-15 08:00:00 4.9 28 Sur 42 Sur 0 -- -- 68
2020-01-15 07:00:00 5.1 29 Sudoeste 41 Sudoeste 0 -- -- 65
2020-01-15 06:00:00 4.5 12 Sudeste 34 Este 0 -- -- 68
2020-01-15 05:00:00 4 14 Sudeste 32 Sudeste 0 -- -- 70
2020-01-15 04:00:00 3.9 22 Sudeste 31 Sudeste 0 -- -- 70
2020-01-15 03:00:00 3.9 14 Sudeste 35 Sur 0 -- -- 71
2020-01-15 02:00:00 4.5 24 Sur 34 Sur 0 -- -- 67
2020-01-15 01:00:00 5 16 Sudoeste 24 Sur 0 -- -- 63
2020-01-15 00:00:00 5.4 14 Sur 23 Sur 0 -- -- 59
2020-01-14 23:00:00 5.4 15 Sur 26 Sudeste 0 -- -- 60
2020-01-14 22:00:00 5.6 17 Sur 29 Sur 0 -- -- 56
2020-01-14 21:00:00 5.5 19 Sur 28 Sur 0 -- -- 59
2020-01-14 20:00:00 5 9 Sudeste 27 Sudeste 0 -- -- 61
2020-01-14 19:00:00 5.9 21 Sur 33 Sur 0 -- -- 62
2020-01-14 18:00:00 7.2 23 Sur 32 Sur 0 -- -- 63
2020-01-14 17:00:00 9.5 11 Sudoeste 15 Sudoeste 0 -- -- 50
2020-01-14 16:00:00 11.4 9 Sudoeste 19 Sur 0 -- -- 44
2020-01-14 15:00:00 11.4 10 Sur 17 Sur 0 -- -- 42
2020-01-14 14:00:00 9.9 9 Sur 22 Sur 0 -- -- 47
2020-01-14 13:00:00 7.1 2 Oeste 8 Oeste 0 -- -- 59
2020-01-14 12:00:00 4.3 3 Sudeste 8 Nordeste 0 -- -- 66
2020-01-14 11:00:00 1.4 3 Norte 6 Norte 0 -- -- 69
2020-01-14 10:00:00 -1.1 3 Este 6 Nordeste 0 -- -- 82
2020-01-14 09:00:00 -2 2 Noroeste 9 Sudoeste 0 -- -- 82
2020-01-14 08:00:00 -2 2 Noroeste 8 Sudeste 0 -- -- 83
2020-01-14 07:00:00 -1.9 3 Nordeste 14 Sur 0 -- -- 83
2020-01-14 06:00:00 -1.1 3 Este 8 Sudoeste 0 -- -- 81
2020-01-14 05:00:00 -1.4 2 Norte 9 Norte 0 -- -- 82
2020-01-14 04:00:00 -0.8 4 Noroeste 9 Sudoeste 0 -- -- 82
2020-01-14 03:00:00 -0.5 5 Norte 11 Norte 0 -- -- 80
2020-01-14 02:00:00 -0.2 4 Sudeste 8 Oeste 0 -- -- 79
2020-01-14 01:00:00 0.2 4 Este 6 Nordeste 0 -- -- 77
2020-01-14 00:00:00 1.3 5 Norte 8 Sudoeste 0 -- -- 76
2020-01-13 23:00:00 1 2 Oeste 7 Sur 0 -- -- 79
2020-01-13 22:00:00 2 5 Noroeste 14 Sur 0 -- -- 75
2020-01-13 21:00:00 2.2 2 Este 10 Sudeste 0 -- -- 75
2020-01-13 20:00:00 2.7 4 Oeste 7 Sudoeste 0 -- -- 74
2020-01-13 19:00:00 4 3 Nordeste 20 Sudeste 0 -- -- 68
2020-01-13 18:00:00 5.1 10 Sudeste 18 Sudeste 0 -- -- 66
2020-01-13 17:00:00 7.6 4 Norte 13 Norte 0 -- -- 60
2020-01-13 16:00:00 8 8 Noroeste 14 Sudeste 0 -- -- 60
2020-01-13 15:00:00 7.4 2 Sudeste 14 Noroeste 0 -- -- 60
2020-01-13 14:00:00 7.8 6 Norte 12 Noroeste 0 -- -- 63
2020-01-13 13:00:00 5.4 2 Noroeste 7 Oeste 0 -- -- 72
2020-01-13 12:00:00 1.8 4 Norte 7 Norte 0 -- -- 85
2020-01-13 11:00:00 0.2 0 Calma 4 Nordeste 0 -- -- 90
2020-01-13 10:00:00 -1.5 3 Oeste 7 Este 0 -- -- 89
2020-01-13 09:00:00 -2.4 3 Noroeste 5 Sudeste 0 -- -- 91
2020-01-13 08:00:00 -2.6 0 Calma 5 Noroeste 0 -- -- 91
2020-01-13 07:00:00 -2.2 3 Sudoeste 4 Oeste 0 -- -- 90
2020-01-13 06:00:00 -2.2 0 Calma 3 Este 0 -- -- 89
2020-01-13 05:00:00 -2.4 3 Oeste 4 Oeste 0 -- -- 89
2020-01-13 04:00:00 -1.4 0 Calma 4 Noroeste 0 -- -- 88
2020-01-13 03:00:00 -1.6 3 Norte 6 Norte 0 -- -- 87
2020-01-13 02:00:00 -0.1 3 Sur 5 Sur 0 -- -- 84
2020-01-13 01:00:00 -0.2 3 Nordeste 4 Nordeste 0 -- -- 83
2020-01-13 00:00:00 0.2 3 Noroeste 4 Noroeste 0 -- -- 81
2020-01-12 23:00:00 0.9 2 Norte 4 Noroeste 0 -- -- 77
2020-01-12 22:00:00 2 0 Calma 6 Noroeste 0 -- -- 75
2020-01-12 21:00:00 2.7 0 Calma 3 Este 0 -- -- 71
2020-01-12 20:00:00 3.4 0 Calma 5 Oeste 0 -- -- 68
2020-01-12 19:00:00 4.3 0 Calma 9 Sudoeste 0 -- -- 64
2020-01-12 18:00:00 5.7 3 Sudoeste 7 Sudoeste 0 -- -- 60
2020-01-12 17:00:00 8.2 5 Noroeste 8 Sudoeste 0 -- -- 55
2020-01-12 16:00:00 9.2 0 Calma 8 Sudeste 0 -- -- 48
2020-01-12 15:00:00 8.1 3 Sudeste 6 Sudeste 0 -- -- 50
2020-01-12 14:00:00 7.4 3 Nordeste 8 Noroeste 0 -- -- 57
2020-01-12 13:00:00 5.1 3 Nordeste 8 Este 0 -- -- 73
2020-01-12 12:00:00 2.8 3 Norte 7 Norte 0 -- -- 82
2020-01-12 11:00:00 1.3 4 Este 6 Nordeste 0 -- -- 85
2020-01-12 10:00:00 -1.5 0 Calma 4 Noroeste 0 -- -- 90
2020-01-12 09:00:00 -2.9 0 Calma 6 Sudeste 0 -- -- 93
2020-01-12 08:00:00 -3.2 0 Calma 4 Noroeste 0 -- -- 92
2020-01-12 07:00:00 -2.7 0 Calma 3 Oeste 0 -- -- 92
2020-01-12 06:00:00 -2.5 0 Calma 4 Sudeste 0 -- -- 90
2020-01-12 05:00:00 -2 0 Calma 7 Noroeste 0 -- -- 90
2020-01-12 04:00:00 -1.6 0 Calma 5 Norte 0 -- -- 90
2020-01-12 03:00:00 -1.4 0 Calma 5 Norte 0 -- -- 89
2020-01-12 02:00:00 -1.2 0 Calma 5 Noroeste 0 -- -- 90
2020-01-12 01:00:00 -0.7 3 Sudeste 5 Oeste 0 -- -- 88
2020-01-12 00:00:00 0.3 3 Noroeste 4 Noroeste 0 -- -- 81
2020-01-11 23:00:00 0.8 0 Calma 3 Norte 0 -- -- 80
2020-01-11 22:00:00 1.6 0 Calma 5 Noroeste 0 -- -- 77
2020-01-11 21:00:00 2 4 Noroeste 5 Noroeste 0 -- -- 74
2020-01-11 20:00:00 2.6 3 Sudoeste 5 Sudoeste 0 -- -- 73
2020-01-11 19:00:00 4.3 4 Sudoeste 9 Sudoeste 0 -- -- 65
2020-01-11 18:00:00 5.3 6 Sudoeste 9 Sudoeste 0 -- -- 63
2020-01-11 17:00:00 7.8 6 Sudoeste 8 Sudoeste 0 -- -- 59
2020-01-11 16:00:00 9.1 2 Nordeste 8 Norte 0 -- -- 50
2020-01-11 15:00:00 9.4 6 Noroeste 12 Noroeste 0 -- -- 52
2020-01-11 14:00:00 8 5 Norte 11 Noroeste 0 -- -- 50
2020-01-11 13:00:00 6.5 3 Norte 6 Este 0 -- -- 56
2020-01-11 12:00:00 4.9 4 Este 7 Este 0 -- -- 64
2020-01-11 11:00:00 2.8 2 Sudeste 6 Este 0 -- -- 78
2020-01-11 10:00:00 0.1 2 Noroeste 4 Noroeste 0 -- -- 83
2020-01-11 09:00:00 -2 5 Noroeste 6 Noroeste 0 -- -- 88
2020-01-11 08:00:00 -1.3 0 Calma 7 Noroeste 0 -- -- 86
2020-01-11 07:00:00 -0.8 4 Noroeste 5 Noroeste 0 -- -- 84
2020-01-11 06:00:00 0.2 3 Sudoeste 8 Oeste 0 -- -- 79
2020-01-11 05:00:00 0.7 0 Calma 8 Oeste 0 -- -- 80
2020-01-11 04:00:00 0.8 3 Sur 6 Noroeste 0 -- -- 82
2020-01-11 03:00:00 1.6 3 Oeste 9 Sudoeste 0 -- -- 77
2020-01-11 02:00:00 2.1 3 Sudoeste 9 Noroeste 0 -- -- 76
2020-01-11 01:00:00 2.7 7 Noroeste 15 Noroeste 0 -- -- 74
2020-01-11 00:00:00 3.2 7 Oeste 22 Noroeste 0 -- -- 73
2020-01-10 23:00:00 3.4 15 Oeste 21 Oeste 0 -- -- 75
2020-01-10 22:00:00 5.1 7 Noroeste 25 Noroeste 0 -- -- 68
2020-01-10 21:00:00 5.4 18 Oeste 27 Noroeste 0 -- -- 69
2020-01-10 20:00:00 5.3 16 Noroeste 40 Noroeste 0 -- -- 72
2020-01-10 19:00:00 5.7 24 Noroeste 37 Noroeste 0 -- -- 72
2020-01-10 18:00:00 6.2 24 Noroeste 42 Noroeste 0 -- -- 69
2020-01-10 17:00:00 7.5 31 Noroeste 45 Noroeste 0 -- -- 64
2020-01-10 16:00:00 8.6 32 Noroeste 50 Noroeste 0 -- -- 62
2020-01-10 15:00:00 8.9 38 Noroeste 54 Noroeste 0 -- -- 62
2020-01-10 14:00:00 8.8 39 Noroeste 51 Noroeste 0 -- -- 64
2020-01-10 13:00:00 8.5 33 Noroeste 51 Noroeste 0 -- -- 65
2020-01-10 12:00:00 7.8 31 Noroeste 45 Noroeste 0 -- -- 68
2020-01-10 11:00:00 6.8 28 Noroeste 42 Noroeste 0 -- -- 70
2020-01-10 10:00:00 5.6 22 Noroeste 40 Noroeste 0 -- -- 74
2020-01-10 09:00:00 4.4 21 Noroeste 44 Noroeste 0.2 -- -- 77
2020-01-10 08:00:00 4.5 29 Noroeste 45 Noroeste 0 -- -- 76
2020-01-10 07:00:00 4.5 22 Noroeste 36 Noroeste 0 -- -- 78
2020-01-10 06:00:00 4.8 21 Noroeste 33 Noroeste 0 -- -- 77
2020-01-10 05:00:00 5.5 20 Noroeste 35 Noroeste 0 -- -- 77
2020-01-10 04:00:00 5.4 18 Noroeste 26 Noroeste 0 -- -- 81
2020-01-10 03:00:00 5.3 16 Noroeste 29 Noroeste 0 -- -- 83
2020-01-10 02:00:00 5.4 22 Noroeste 31 Noroeste 0 -- -- 81
2020-01-10 01:00:00 5.2 20 Noroeste 33 Noroeste 0.4 -- -- 88
2020-01-10 00:00:00 4.8 10 Noroeste 19 Noroeste 0 -- -- 90
2020-01-09 23:00:00 5.2 4 Sudoeste 13 Sudeste 0 -- -- 86
2020-01-09 22:00:00 4.9 10 Noroeste 14 Noroeste 0 -- -- 85
2020-01-09 21:00:00 7.5 7 Sudeste 12 Sudeste 0 -- -- 72
2020-01-09 20:00:00 9.1 6 Norte 13 Oeste 0 -- -- 62
2020-01-09 19:00:00 9 8 Sur 25 Sur 0 -- -- 60
2020-01-09 18:00:00 9.3 14 Sudoeste 28 Sur 0 -- -- 65
2020-01-09 17:00:00 10.6 18 Sur 31 Sur 0 -- -- 55
2020-01-09 16:00:00 10.8 16 Sudoeste 31 Sudoeste 0 -- -- 53
2020-01-09 15:00:00 11.9 18 Sur 32 Sur 0 -- -- 51
2020-01-09 14:00:00 11.8 20 Sur 33 Sur 0 -- -- 53
2020-01-09 13:00:00 10.5 18 Sur 30 Sur 0 -- -- 61
2020-01-09 12:00:00 9.7 13 Sur 27 Sudeste 0 -- -- 66
2020-01-09 11:00:00 7.8 17 Sur 29 Sur 0 -- -- 72
2020-01-09 10:00:00 4.4 7 Sudeste 19 Sudeste 0 -- -- 82
2020-01-09 09:00:00 3 7 Este 18 Sudeste 0 -- -- 82
2020-01-09 08:00:00 5.1 10 Sudoeste 26 Sur 0 -- -- 71
2020-01-09 07:00:00 3.4 5 Sudoeste 20 Sur 0 -- -- 81
2020-01-09 06:00:00 2.5 7 Este 15 Sudeste 0 -- -- 86
2020-01-09 05:00:00 2.6 9 Este 20 Sudeste 0 -- -- 83
2020-01-09 04:00:00 4.8 7 Sudeste 14 Sudeste 0 -- -- 80
2020-01-09 03:00:00 4.1 3 Norte 18 Sur 0 -- -- 79
2020-01-09 02:00:00 4.4 6 Este 21 Sudoeste 0 -- -- 77
2020-01-09 01:00:00 7.2 17 Sudoeste 24 Sur 0 -- -- 77
2020-01-09 00:00:00 6.9 19 Sur 28 Sur 0 -- -- 80
2020-01-08 23:00:00 7.2 19 Sur 30 Sudoeste 0 -- -- 78
2020-01-08 22:00:00 6.6 18 Sur 28 Sudeste 0 -- -- 80
2020-01-08 21:00:00 6.4 10 Sur 20 Sur 0 -- -- 79
2020-01-08 20:00:00 6.6 10 Sudeste 15 Sudeste 0 -- -- 73
2020-01-08 19:00:00 7.8 7 Sur 11 Sur 0 -- -- 69
2020-01-08 18:00:00 9.5 7 Sur 11 Sur 0 -- -- 66
2020-01-08 17:00:00 11.4 5 Sudoeste 8 Sudoeste 0 -- -- 65
2020-01-08 16:00:00 13.8 3 Sur 9 Noroeste 0 -- -- 58
2020-01-08 15:00:00 13.9 7 Noroeste 12 Noroeste 0 -- -- 57
2020-01-08 14:00:00 12.3 6 Noroeste 10 Noroeste 0 -- -- 63
2020-01-08 13:00:00 10 4 Norte 7 Noroeste 0 -- -- 70
2020-01-08 12:00:00 8.2 4 Sudeste 6 Este 0 -- -- 78
2020-01-08 11:00:00 5.8 0 Calma 6 Nordeste 0 -- -- 84
2020-01-08 10:00:00 3.1 3 Sudoeste 6 Este 0 -- -- 93
2020-01-08 09:00:00 2.5 0 Calma 3 Oeste 0 -- -- 94
2020-01-08 08:00:00 1.9 0 Calma 6 Sudoeste 0 -- -- 94
2020-01-08 07:00:00 2.1 2 Nordeste 5 Oeste 0 -- -- 92
2020-01-08 06:00:00 2.3 2 Oeste 6 Sudeste 0 -- -- 90
2020-01-08 05:00:00 3 2 Este 6 Este 0 -- -- 89
2020-01-08 04:00:00 3.2 2 Noroeste 4 Noroeste 0 -- -- 88
2020-01-08 03:00:00 2.9 0 Calma 3 Sudoeste 0 -- -- 88
2020-01-08 02:00:00 3.4 2 Sudoeste 4 Sudoeste 0 -- -- 87
2020-01-08 01:00:00 3.5 0 Calma 3 Noroeste 0 -- -- 85
2020-01-08 00:00:00 4.2 0 Calma 6 Noroeste 0 -- -- 82
2020-01-07 23:00:00 5 4 Norte 6 Sudeste 0 -- -- 79
2020-01-07 22:00:00 5.1 0 Calma 4 Oeste 0 -- -- 78
2020-01-07 21:00:00 5.4 2 Norte 5 Norte 0 -- -- 75
2020-01-07 20:00:00 6 0 Calma 6 Sudoeste 0 -- -- 73
2020-01-07 19:00:00 6.3 2 Oeste 7 Sudoeste 0 -- -- 70
2020-01-07 18:00:00 7.3 0 Calma 6 Sudoeste 0 -- -- 67
2020-01-07 17:00:00 9.7 3 Sudoeste 6 Noroeste 0 -- -- 58
2020-01-07 16:00:00 10.4 3 Norte 5 Norte 0 -- -- 54
2020-01-07 15:00:00 9.2 3 Este 7 Noroeste 0 -- -- 57
2020-01-07 14:00:00 8 4 Nordeste 8 Este 0 -- -- 64
2020-01-07 13:00:00 6.1 3 Oeste 8 Este 0 -- -- 77
2020-01-07 12:00:00 4.1 2 Sudoeste 9 Sudeste 0 -- -- 82
2020-01-07 11:00:00 2.1 2 Sudeste 6 Sudeste 0 -- -- 86
2020-01-07 10:00:00 0.5 0 Calma 4 Nordeste 0 -- -- 91
2020-01-07 09:00:00 -1.6 2 Noroeste 4 Noroeste 0 -- -- 94
2020-01-07 08:00:00 -1.5 4 Oeste 5 Oeste 0 -- -- 93
2020-01-07 07:00:00 -0.9 2 Norte 5 Sudeste 0 -- -- 91
2020-01-07 06:00:00 -0.8 0 Calma 5 Oeste 0 -- -- 93
2020-01-07 05:00:00 0.1 2 Este 6 Sur 0 -- -- 87
2020-01-07 04:00:00 -0.4 3 Noroeste 5 Oeste 0 -- -- 91
2020-01-07 03:00:00 -0.1 0 Calma 4 Noroeste 0 -- -- 90
2020-01-07 02:00:00 0.7 0 Calma 4 Oeste 0 -- -- 88
2020-01-07 01:00:00 1 0 Calma 6 Sudeste 0 -- -- 90
2020-01-07 00:00:00 1.6 4 Noroeste 5 Noroeste 0 -- -- 86
2020-01-06 23:00:00 1.7 3 Sur 6 Sudeste 0 -- -- 88
2020-01-06 22:00:00 2.9 2 Oeste 7 Sur 0 -- -- 80
2020-01-06 21:00:00 3.4 4 Sudeste 8 Sur 0 -- -- 81
2020-01-06 20:00:00 4.7 6 Sur 10 Sur 0 -- -- 77
2020-01-06 19:00:00 5.6 4 Sur 9 Sudoeste 0 -- -- 72
2020-01-06 18:00:00 6.6 2 Nordeste 7 Sudoeste 0 -- -- 68
2020-01-06 17:00:00 8.6 6 Sudoeste 9 Sudoeste 0 -- -- 65
2020-01-06 16:00:00 10.4 6 Sudoeste 7 Sudoeste 0 -- -- 56
2020-01-06 15:00:00 9.5 3 Este 8 Sudeste 0 -- -- 57
2020-01-06 14:00:00 8.3 4 Sudeste 8 Sudeste 0 -- -- 61
2020-01-06 13:00:00 6.5 3 Nordeste 6 Noroeste 0 -- -- 72
2020-01-06 12:00:00 4.6 2 Norte 6 Este 0 -- -- 80
2020-01-06 11:00:00 2.5 4 Noroeste 6 Noroeste 0 -- -- 85
2020-01-06 10:00:00 1.5 0 Calma 5 Este 0 -- -- 89